sensor_id;sensor_type;location;lat;lon;timestamp;pressure;altitude;pressure_sealevel;temperature;humidity
73341;BME280;61578;52.002;5.468;2023-08-17T00:00:18;102000.81;;;20.20;67.07
73341;BME280;61578;52.002;5.468;2023-08-17T00:00:49;101997.06;;;20.12;67.35
73341;BME280;61578;52.002;5.468;2023-08-17T00:01:19;102008.19;;;20.18;67.69
73341;BME280;61578;52.002;5.468;2023-08-17T00:01:51;102003.78;;;20.17;67.68
73341;BME280;61578;52.002;5.468;2023-08-17T00:02:21;102005.63;;;20.17;67.59
73341;BME280;61578;52.002;5.468;2023-08-17T00:02:52;102012.00;;;20.16;67.17
73341;BME280;61578;52.002;5.468;2023-08-17T00:03:23;101997.06;;;20.12;67.50
73341;BME280;61578;52.002;5.468;2023-08-17T00:03:54;101998.66;;;20.14;67.20
73341;BME280;61578;52.002;5.468;2023-08-17T00:04:25;102012.16;;;20.14;66.74
73341;BME280;61578;52.002;5.468;2023-08-17T00:04:56;102001.38;;;20.14;67.11
73341;BME280;61578;52.002;5.468;2023-08-17T00:05:29;102014.00;;;20.14;67.36
73341;BME280;61578;52.002;5.468;2023-08-17T00:06:02;102002.22;;;20.15;67.46
73341;BME280;61578;52.002;5.468;2023-08-17T00:06:33;102012.00;;;20.16;67.08
73341;BME280;61578;52.002;5.468;2023-08-17T00:07:04;102010.31;;;20.15;66.95
73341;BME280;61578;52.002;5.468;2023-08-17T00:07:36;102010.31;;;20.15;66.92
73341;BME280;61578;52.002;5.468;2023-08-17T00:08:07;101986.81;;;20.06;67.82
73341;BME280;61578;52.002;5.468;2023-08-17T00:08:37;102004.91;;;20.15;67.35
73341;BME280;61578;52.002;5.468;2023-08-17T00:09:09;102015.69;;;20.15;67.19
73341;BME280;61578;52.002;5.468;2023-08-17T00:09:40;102003.03;;;20.15;67.33
73341;BME280;61578;52.002;5.468;2023-08-17T00:10:10;102014.13;;;20.12;67.19
73341;BME280;61578;52.002;5.468;2023-08-17T00:10:41;102017.66;;;20.13;67.07
73341;BME280;61578;52.002;5.468;2023-08-17T00:11:12;102010.56;;;20.12;66.78
73341;BME280;61578;52.002;5.468;2023-08-17T00:11:42;102014.13;;;20.12;67.17
73341;BME280;61578;52.002;5.468;2023-08-17T00:12:13;102014.97;;;20.13;67.69
73341;BME280;61578;52.002;5.468;2023-08-17T00:12:44;102017.66;;;20.13;67.26
73341;BME280;61578;52.002;5.468;2023-08-17T00:13:15;102014.00;;;20.14;67.66
73341;BME280;61578;52.002;5.468;2023-08-17T00:13:45;102010.31;;;20.15;67.39
73341;BME280;61578;52.002;5.468;2023-08-17T00:14:16;102008.84;;;20.11;67.40
73341;BME280;61578;52.002;5.468;2023-08-17T00:14:47;102014.00;;;20.14;67.24
73341;BME280;61578;52.002;5.468;2023-08-17T00:15:17;102015.69;;;20.15;67.79
73341;BME280;61578;52.002;5.468;2023-08-17T00:15:48;102022.06;;;20.14;67.33
73341;BME280;61578;52.002;5.468;2023-08-17T00:16:19;102016.69;;;20.14;66.80
73341;BME280;61578;52.002;5.468;2023-08-17T00:16:50;102016.09;;;20.10;66.70
73341;BME280;61578;52.002;5.468;2023-08-17T00:17:21;102021.47;;;20.10;67.32
73341;BME280;61578;52.002;5.468;2023-08-17T00:17:52;102013.50;;;20.09;67.48
73341;BME280;61578;52.002;5.468;2023-08-17T00:18:23;102024.41;;;20.07;67.30
73341;BME280;61578;52.002;5.468;2023-08-17T00:18:54;102017.31;;;20.06;67.79
73341;BME280;61578;52.002;5.468;2023-08-17T00:19:24;102020.00;;;20.06;67.91
73341;BME280;61578;52.002;5.468;2023-08-17T00:19:55;102015.03;;;20.02;67.37
73341;BME280;61578;52.002;5.468;2023-08-17T00:20:26;102018.59;;;20.02;67.08
73341;BME280;61578;52.002;5.468;2023-08-17T00:20:57;102021.28;;;20.02;67.08
73341;BME280;61578;52.002;5.468;2023-08-17T00:21:28;102014.19;;;20.01;67.44
73341;BME280;61578;52.002;5.468;2023-08-17T00:21:58;102015.28;;;19.99;67.14
73341;BME280;61578;52.002;5.468;2023-08-17T00:22:29;102005.59;;;19.96;67.41
73341;BME280;61578;52.002;5.468;2023-08-17T00:23:00;102015.41;;;19.97;67.37
73341;BME280;61578;52.002;5.468;2023-08-17T00:23:31;102010.88;;;19.98;67.41
73341;BME280;61578;52.002;5.468;2023-08-17T00:24:01;101992.66;;;19.90;67.61
73341;BME280;61578;52.002;5.468;2023-08-17T00:24:32;102000.38;;;19.95;67.17
73341;BME280;61578;52.002;5.468;2023-08-17T00:25:03;102004.06;;;19.94;67.16
73341;BME280;61578;52.002;5.468;2023-08-17T00:25:35;102010.44;;;19.93;67.37
73341;BME280;61578;52.002;5.468;2023-08-17T00:26:06;102007.72;;;19.93;67.70
73341;BME280;61578;52.002;5.468;2023-08-17T00:26:37;101998.78;;;19.92;67.46
73341;BME280;61578;52.002;5.468;2023-08-17T00:27:08;101999.63;;;19.93;67.74
73341;BME280;61578;52.002;5.468;2023-08-17T00:27:38;101998.91;;;19.91;67.91
73341;BME280;61578;52.002;5.468;2023-08-17T00:28:09;102000.75;;;19.90;67.49
73341;BME280;61578;52.002;5.468;2023-08-17T00:28:40;101990.09;;;19.89;67.69
73341;BME280;61578;52.002;5.468;2023-08-17T00:29:11;101991.94;;;19.88;67.68
73341;BME280;61578;52.002;5.468;2023-08-17T00:29:42;101994.63;;;19.88;67.48
73341;BME280;61578;52.002;5.468;2023-08-17T00:30:13;101986.22;;;19.81;67.41
73341;BME280;61578;52.002;5.468;2023-08-17T00:30:44;101980.09;;;19.79;67.54
73341;BME280;61578;52.002;5.468;2023-08-17T00:31:15;101984.94;;;19.85;67.30
73341;BME280;61578;52.002;5.468;2023-08-17T00:31:47;101998.59;;;19.84;67.88
73341;BME280;61578;52.002;5.468;2023-08-17T00:32:18;101989.66;;;19.83;67.75
73341;BME280;61578;52.002;5.468;2023-08-17T00:32:49;101996.16;;;19.81;67.46
73341;BME280;61578;52.002;5.468;2023-08-17T00:33:19;101995.28;;;19.80;67.16
73341;BME280;61578;52.002;5.468;2023-08-17T00:33:50;101991.97;;;19.77;67.46
73341;BME280;61578;52.002;5.468;2023-08-17T00:34:21;101988.56;;;19.75;67.81
73341;BME280;61578;52.002;5.468;2023-08-17T00:34:51;101994.97;;;19.74;68.22
73341;BME280;61578;52.002;5.468;2023-08-17T00:35:22;101988.22;;;19.68;67.34
73341;BME280;61578;52.002;5.468;2023-08-17T00:35:53;101989.81;;;19.71;67.55
73341;BME280;61578;52.002;5.468;2023-08-17T00:36:24;101985.41;;;19.70;67.67
73341;BME280;61578;52.002;5.468;2023-08-17T00:36:55;101993.50;;;19.70;67.52
73341;BME280;61578;52.002;5.468;2023-08-17T00:37:25;101990.94;;;19.68;67.50
73341;BME280;61578;52.002;5.468;2023-08-17T00:37:56;102000.72;;;19.69;67.47
73341;BME280;61578;52.002;5.468;2023-08-17T00:38:27;101997.41;;;19.66;67.89
73341;BME280;61578;52.002;5.468;2023-08-17T00:38:58;101996.44;;;19.67;67.93
73341;BME280;61578;52.002;5.468;2023-08-17T00:39:28;101999.13;;;19.67;67.61
73341;BME280;61578;52.002;5.468;2023-08-17T00:40:00;102003.66;;;19.66;67.33
73341;BME280;61578;52.002;5.468;2023-08-17T00:40:30;101994.72;;;19.66;67.88
73341;BME280;61578;52.002;5.468;2023-08-17T00:41:01;101994.88;;;19.64;67.34
73341;BME280;61578;52.002;5.468;2023-08-17T00:41:35;102008.19;;;19.66;67.70
73341;BME280;61578;52.002;5.468;2023-08-17T00:42:06;102000.97;;;19.66;67.75
73341;BME280;61578;52.002;5.468;2023-08-17T00:42:38;101998.41;;;19.65;67.13
73341;BME280;61578;52.002;5.468;2023-08-17T00:43:09;102000.41;;;19.63;67.46
73341;BME280;61578;52.002;5.468;2023-08-17T00:43:39;101999.66;;;19.61;67.42
73341;BME280;61578;52.002;5.468;2023-08-17T00:44:10;101996.97;;;19.61;67.42
73341;BME280;61578;52.002;5.468;2023-08-17T00:44:41;101997.09;;;19.59;67.58
73341;BME280;61578;52.002;5.468;2023-08-17T00:45:12;101992.56;;;19.60;67.47
73341;BME280;61578;52.002;5.468;2023-08-17T00:45:48;102001.63;;;19.59;67.31
73341;BME280;61578;52.002;5.468;2023-08-17T00:46:20;101999.91;;;19.58;67.51
73341;BME280;61578;52.002;5.468;2023-08-17T00:46:53;101997.22;;;19.58;67.51
73341;BME280;61578;52.002;5.468;2023-08-17T00:47:24;101996.22;;;19.59;68.42
73341;BME280;61578;52.002;5.468;2023-08-17T00:47:57;101992.56;;;19.60;67.51
73341;BME280;61578;52.002;5.468;2023-08-17T00:48:29;101994.41;;;19.59;67.79
73341;BME280;61578;52.002;5.468;2023-08-17T00:49:02;101992.56;;;19.60;68.40
73341;BME280;61578;52.002;5.468;2023-08-17T00:49:34;101998.94;;;19.59;68.21
73341;BME280;61578;52.002;5.468;2023-08-17T00:50:06;101996.22;;;19.59;68.23
73341;BME280;61578;52.002;5.468;2023-08-17T00:50:51;101991.94;;;19.56;68.33
73341;BME280;61578;52.002;5.468;2023-08-17T00:51:24;101991.94;;;19.56;68.18
73341;BME280;61578;52.002;5.468;2023-08-17T00:51:56;101992.06;;;19.55;68.08
73341;BME280;61578;52.002;5.468;2023-08-17T00:52:28;101992.06;;;19.55;69.38
73341;BME280;61578;52.002;5.468;2023-08-17T00:53:03;101976.53;;;19.47;67.93
73341;BME280;61578;52.002;5.468;2023-08-17T00:53:35;101987.09;;;19.50;68.05
73341;BME280;61578;52.002;5.468;2023-08-17T00:54:06;101976.78;;;19.44;67.99
73341;BME280;61578;52.002;5.468;2023-08-17T00:54:37;101986.34;;;19.48;68.40
73341;BME280;61578;52.002;5.468;2023-08-17T00:55:11;101989.13;;;19.46;68.01
73341;BME280;61578;52.002;5.468;2023-08-17T00:55:49;101984.03;;;19.43;68.12
73341;BME280;61578;52.002;5.468;2023-08-17T00:56:22;101991.25;;;19.43;68.57
73341;BME280;61578;52.002;5.468;2023-08-17T00:56:53;101982.44;;;19.41;68.84
73341;BME280;61578;52.002;5.468;2023-08-17T00:57:25;101984.28;;;19.40;68.91
73341;BME280;61578;52.002;5.468;2023-08-17T00:57:56;101991.50;;;19.40;68.71
73341;BME280;61578;52.002;5.468;2023-08-17T00:58:28;101982.69;;;19.38;68.50
73341;BME280;61578;52.002;5.468;2023-08-17T00:58:59;101986.47;;;19.35;68.32
73341;BME280;61578;52.002;5.468;2023-08-17T00:59:30;101990.16;;;19.34;68.46
73341;BME280;61578;52.002;5.468;2023-08-17T01:00:01;101990.16;;;19.34;68.84
73341;BME280;61578;52.002;5.468;2023-08-17T01:00:34;101985.63;;;19.35;68.82
73341;BME280;61578;52.002;5.468;2023-08-17T01:01:05;101985.63;;;19.35;68.66
73341;BME280;61578;52.002;5.468;2023-08-17T01:01:36;101993.84;;;19.33;68.58
73341;BME280;61578;52.002;5.468;2023-08-17T01:02:08;101988.47;;;19.33;68.31
73341;BME280;61578;52.002;5.468;2023-08-17T01:02:42;101991.16;;;19.33;68.90
73341;BME280;61578;52.002;5.468;2023-08-17T01:03:15;101980.63;;;19.30;68.58
73341;BME280;61578;52.002;5.468;2023-08-17T01:03:47;101992.13;;;19.32;69.17
73341;BME280;61578;52.002;5.468;2023-08-17T01:04:18;101972.06;;;19.25;68.93
73341;BME280;61578;52.002;5.468;2023-08-17T01:04:49;101977.19;;;19.28;69.05
73341;BME280;61578;52.002;5.468;2023-08-17T01:05:20;101977.19;;;19.28;69.22
73341;BME280;61578;52.002;5.468;2023-08-17T01:05:52;101991.16;;;19.33;69.07
73341;BME280;61578;52.002;5.468;2023-08-17T01:06:23;101987.59;;;19.33;68.54
73341;BME280;61578;52.002;5.468;2023-08-17T01:06:53;101984.75;;;19.34;68.30
73341;BME280;61578;52.002;5.468;2023-08-17T01:07:24;101989.16;;;19.35;68.63
73341;BME280;61578;52.002;5.468;2023-08-17T01:07:55;101982.59;;;19.28;68.59
73341;BME280;61578;52.002;5.468;2023-08-17T01:08:26;101990.88;;;19.36;68.81
73341;BME280;61578;52.002;5.468;2023-08-17T01:08:56;101998.97;;;19.36;68.61
73341;BME280;61578;52.002;5.468;2023-08-17T01:09:28;101991.84;;;19.35;68.93
73341;BME280;61578;52.002;5.468;2023-08-17T01:09:59;101996.28;;;19.36;68.67
73341;BME280;61578;52.002;5.468;2023-08-17T01:11:13;101997.25;;;19.35;69.11
73341;BME280;61578;52.002;5.468;2023-08-17T01:13:16;102000.06;;;19.34;69.54
73341;BME280;61578;52.002;5.468;2023-08-17T01:14:10;102000.22;;;19.32;69.03
73341;BME280;61578;52.002;5.468;2023-08-17T01:15:08;102000.06;;;19.34;69.26
73341;BME280;61578;52.002;5.468;2023-08-17T01:15:56;101997.38;;;19.34;70.01
73341;BME280;61578;52.002;5.468;2023-08-17T01:16:35;101998.09;;;19.36;69.18
73341;BME280;61578;52.002;5.468;2023-08-17T01:17:40;101997.97;;;19.37;69.43
73341;BME280;61578;52.002;5.468;2023-08-17T01:18:33;101996.28;;;19.36;69.64
73341;BME280;61578;52.002;5.468;2023-08-17T01:19:08;101998.97;;;19.36;69.51
73341;BME280;61578;52.002;5.468;2023-08-17T01:19:46;101997.13;;;19.37;68.75
73341;BME280;61578;52.002;5.468;2023-08-17T01:20:22;101992.59;;;19.37;69.20
73341;BME280;61578;52.002;5.468;2023-08-17T01:20:54;102000.56;;;19.39;68.85
73341;BME280;61578;52.002;5.468;2023-08-17T01:21:37;101993.56;;;19.36;68.92
73341;BME280;61578;52.002;5.468;2023-08-17T01:22:17;101989.16;;;19.35;69.10
73341;BME280;61578;52.002;5.468;2023-08-17T01:22:55;102000.56;;;19.39;68.72
73341;BME280;61578;52.002;5.468;2023-08-17T01:23:29;101990.16;;;19.34;68.94
73341;BME280;61578;52.002;5.468;2023-08-17T01:24:03;102000.44;;;19.40;68.53
73341;BME280;61578;52.002;5.468;2023-08-17T01:24:34;101996.88;;;19.40;68.84
73341;BME280;61578;52.002;5.468;2023-08-17T01:25:05;101999.69;;;19.38;69.06
73341;BME280;61578;52.002;5.468;2023-08-17T01:25:36;102001.53;;;19.38;69.04
73341;BME280;61578;52.002;5.468;2023-08-17T01:26:06;101995.16;;;19.39;68.58
73341;BME280;61578;52.002;5.468;2023-08-17T01:26:37;101997.25;;;19.35;68.60
73341;BME280;61578;52.002;5.468;2023-08-17T01:27:08;101991.00;;;19.35;69.01
73341;BME280;61578;52.002;5.468;2023-08-17T01:27:44;101993.84;;;19.33;68.54
73341;BME280;61578;52.002;5.468;2023-08-17T01:28:16;101992.13;;;19.32;68.78
73341;BME280;61578;52.002;5.468;2023-08-17T01:28:47;101992.25;;;19.31;68.84
73341;BME280;61578;52.002;5.468;2023-08-17T01:29:18;101989.69;;;19.29;68.69
73341;BME280;61578;52.002;5.468;2023-08-17T01:29:50;101994.09;;;19.30;69.75
73341;BME280;61578;52.002;5.468;2023-08-17T01:30:22;101979.44;;;19.23;68.92
73341;BME280;61578;52.002;5.468;2023-08-17T01:31:28;101997.16;;;19.26;68.95
73341;BME280;61578;52.002;5.468;2023-08-17T01:32:36;101985.53;;;19.25;69.31
73341;BME280;61578;52.002;5.468;2023-08-17T01:33:15;101992.91;;;19.23;69.15
73341;BME280;61578;52.002;5.468;2023-08-17T01:34:00;101993.03;;;19.22;69.23
73341;BME280;61578;52.002;5.468;2023-08-17T01:34:48;101993.88;;;19.22;69.56
73341;BME280;61578;52.002;5.468;2023-08-17T01:35:44;101989.47;;;19.21;69.40
73341;BME280;61578;52.002;5.468;2023-08-17T01:36:42;101987.75;;;19.20;68.92
73341;BME280;61578;52.002;5.468;2023-08-17T01:37:21;101996.69;;;19.21;68.94
73341;BME280;61578;52.002;5.468;2023-08-17T01:38:04;101982.16;;;19.12;69.41
73341;BME280;61578;52.002;5.468;2023-08-17T01:38:40;101996.69;;;19.21;69.14
73341;BME280;61578;52.002;5.468;2023-08-17T01:39:13;101987.13;;;19.17;69.17
73341;BME280;61578;52.002;5.468;2023-08-17T01:39:55;101993.50;;;19.16;69.09
73341;BME280;61578;52.002;5.468;2023-08-17T01:40:31;102000.59;;;19.17;69.01
73341;BME280;61578;52.002;5.468;2023-08-17T01:41:05;101991.66;;;19.16;69.38
73341;BME280;61578;52.002;5.468;2023-08-17T01:41:46;101988.97;;;19.16;69.18
73341;BME280;61578;52.002;5.468;2023-08-17T01:42:19;101985.53;;;19.14;69.57
73341;BME280;61578;52.002;5.468;2023-08-17T01:42:51;101994.47;;;19.15;69.41
73341;BME280;61578;52.002;5.468;2023-08-17T01:43:24;101986.41;;;19.15;69.24
73341;BME280;61578;52.002;5.468;2023-08-17T01:43:57;101990.94;;;19.14;69.63
73341;BME280;61578;52.002;5.468;2023-08-17T01:44:30;101990.94;;;19.14;69.92
73341;BME280;61578;52.002;5.468;2023-08-17T01:45:01;101991.78;;;19.15;69.38
73341;BME280;61578;52.002;5.468;2023-08-17T01:45:32;101984.69;;;19.13;70.08
73341;BME280;61578;52.002;5.468;2023-08-17T01:46:03;101972.84;;;19.05;69.47
73341;BME280;61578;52.002;5.468;2023-08-17T01:46:34;101976.28;;;19.07;69.41
73341;BME280;61578;52.002;5.468;2023-08-17T01:47:05;101986.28;;;19.16;69.83
73341;BME280;61578;52.002;5.468;2023-08-17T01:47:36;101980.31;;;19.13;69.06
73341;BME280;61578;52.002;5.468;2023-08-17T01:48:07;101979.47;;;19.12;69.30
73341;BME280;61578;52.002;5.468;2023-08-17T01:48:38;101985.69;;;19.13;69.98
73341;BME280;61578;52.002;5.468;2023-08-17T01:49:08;101975.06;;;19.11;69.35
73341;BME280;61578;52.002;5.468;2023-08-17T01:49:39;101982.16;;;19.12;69.18
73341;BME280;61578;52.002;5.468;2023-08-17T01:50:10;101982.28;;;19.10;69.54
73341;BME280;61578;52.002;5.468;2023-08-17T01:50:41;101979.47;;;19.12;70.08
73341;BME280;61578;52.002;5.468;2023-08-17T01:51:18;101984.09;;;19.10;69.41
73341;BME280;61578;52.002;5.468;2023-08-17T01:51:52;101977.88;;;19.09;69.92
73341;BME280;61578;52.002;5.468;2023-08-17T01:52:26;101980.69;;;19.08;69.46
73341;BME280;61578;52.002;5.468;2023-08-17T01:52:58;101970.44;;;19.02;70.14
73341;BME280;61578;52.002;5.468;2023-08-17T01:53:28;101974.56;;;19.06;69.40
73341;BME280;61578;52.002;5.468;2023-08-17T01:53:59;101974.84;;;19.03;69.40
73341;BME280;61578;52.002;5.468;2023-08-17T01:54:30;101976.66;;;19.02;69.20
73341;BME280;61578;52.002;5.468;2023-08-17T01:55:01;101983.88;;;19.02;69.77
73341;BME280;61578;52.002;5.468;2023-08-17T01:55:31;101979.47;;;19.01;69.26
73341;BME280;61578;52.002;5.468;2023-08-17T01:56:05;101978.63;;;19.00;69.41
73341;BME280;61578;52.002;5.468;2023-08-17T01:56:35;101980.56;;;18.98;69.39
73341;BME280;61578;52.002;5.468;2023-08-17T01:57:06;101981.44;;;18.99;69.50
73341;BME280;61578;52.002;5.468;2023-08-17T01:57:37;101980.69;;;18.97;69.70
73341;BME280;61578;52.002;5.468;2023-08-17T01:58:08;101985.22;;;18.96;69.49
73341;BME280;61578;52.002;5.468;2023-08-17T01:58:39;101987.06;;;18.96;69.94
73341;BME280;61578;52.002;5.468;2023-08-17T01:59:10;101983.63;;;18.94;69.63
73341;BME280;61578;52.002;5.468;2023-08-17T01:59:41;101987.31;;;18.93;69.50
73341;BME280;61578;52.002;5.468;2023-08-17T02:00:12;101981.31;;;18.89;69.19
73341;BME280;61578;52.002;5.468;2023-08-17T02:00:43;101989.50;;;18.88;69.69
73341;BME280;61578;52.002;5.468;2023-08-17T02:01:14;101985.97;;;18.87;69.55
73341;BME280;61578;52.002;5.468;2023-08-17T02:01:44;101975.84;;;18.80;69.81
73341;BME280;61578;52.002;5.468;2023-08-17T02:02:15;101978.13;;;18.84;70.16
73341;BME280;61578;52.002;5.468;2023-08-17T02:02:47;101983.66;;;18.83;69.85
73341;BME280;61578;52.002;5.468;2023-08-17T02:03:18;101990.63;;;18.85;69.92
73341;BME280;61578;52.002;5.468;2023-08-17T02:03:49;101981.94;;;18.82;70.61
73341;BME280;61578;52.002;5.468;2023-08-17T02:04:19;101984.88;;;18.79;70.39
73341;BME280;61578;52.002;5.468;2023-08-17T02:04:50;101990.88;;;18.82;70.08
73341;BME280;61578;52.002;5.468;2023-08-17T02:05:21;101987.56;;;18.79;70.06
73341;BME280;61578;52.002;5.468;2023-08-17T02:05:52;101984.88;;;18.79;69.82
73341;BME280;61578;52.002;5.468;2023-08-17T02:06:22;101984.25;;;18.75;70.20
73341;BME280;61578;52.002;5.468;2023-08-17T02:06:53;101983.41;;;18.74;70.57
73341;BME280;61578;52.002;5.468;2023-08-17T02:07:24;101985.22;;;18.74;70.19
73341;BME280;61578;52.002;5.468;2023-08-17T02:07:55;101981.84;;;18.72;69.89
73341;BME280;61578;52.002;5.468;2023-08-17T02:08:26;101980.81;;;18.73;70.21
73341;BME280;61578;52.002;5.468;2023-08-17T02:08:58;101980.00;;;18.72;70.00
73341;BME280;61578;52.002;5.468;2023-08-17T02:09:29;101983.41;;;18.74;70.38
73341;BME280;61578;52.002;5.468;2023-08-17T02:10:00;101975.44;;;18.73;70.83
73341;BME280;61578;52.002;5.468;2023-08-17T02:10:31;101977.16;;;18.74;70.63
73341;BME280;61578;52.002;5.468;2023-08-17T02:11:04;101989.75;;;18.73;71.11
73341;BME280;61578;52.002;5.468;2023-08-17T02:11:34;101977.16;;;18.74;71.04
73341;BME280;61578;52.002;5.468;2023-08-17T02:12:05;101982.69;;;18.72;70.45
73341;BME280;61578;52.002;5.468;2023-08-17T02:12:36;101984.38;;;18.73;70.83
73341;BME280;61578;52.002;5.468;2023-08-17T02:13:07;101977.56;;;18.69;71.32
73341;BME280;61578;52.002;5.468;2023-08-17T02:13:38;101986.09;;;18.74;71.30
73341;BME280;61578;52.002;5.468;2023-08-17T02:14:09;101989.06;;;18.71;70.84
73341;BME280;61578;52.002;5.468;2023-08-17T02:14:40;101989.75;;;18.73;70.57
73341;BME280;61578;52.002;5.468;2023-08-17T02:15:10;101987.81;;;18.75;70.77
73341;BME280;61578;52.002;5.468;2023-08-17T02:15:41;101987.81;;;18.75;70.06
73341;BME280;61578;52.002;5.468;2023-08-17T02:16:12;101987.81;;;18.75;69.88
73341;BME280;61578;52.002;5.468;2023-08-17T02:16:43;101987.69;;;18.77;70.33
73341;BME280;61578;52.002;5.468;2023-08-17T02:17:14;101985.22;;;18.74;69.90
73341;BME280;61578;52.002;5.468;2023-08-17T02:17:46;101985.13;;;18.75;70.31
73341;BME280;61578;52.002;5.468;2023-08-17T02:18:17;101982.31;;;18.77;70.86
73341;BME280;61578;52.002;5.468;2023-08-17T02:18:48;101981.69;;;18.73;70.63
73341;BME280;61578;52.002;5.468;2023-08-17T02:19:19;101982.53;;;18.74;70.76
73341;BME280;61578;52.002;5.468;2023-08-17T02:19:49;101983.41;;;18.74;70.20
73341;BME280;61578;52.002;5.468;2023-08-17T02:20:20;101985.22;;;18.74;70.76
73341;BME280;61578;52.002;5.468;2023-08-17T02:20:51;101983.53;;;18.73;70.40
73341;BME280;61578;52.002;5.468;2023-08-17T02:21:21;101981.97;;;18.70;70.49
73341;BME280;61578;52.002;5.468;2023-08-17T02:21:52;101983.53;;;18.73;70.31
73341;BME280;61578;52.002;5.468;2023-08-17T02:22:23;101983.66;;;18.71;70.67
73341;BME280;61578;52.002;5.468;2023-08-17T02:22:54;101983.53;;;18.73;70.67
73341;BME280;61578;52.002;5.468;2023-08-17T02:23:24;101985.38;;;18.72;69.83
73341;BME280;61578;52.002;5.468;2023-08-17T02:23:55;101988.06;;;18.72;70.33
73341;BME280;61578;52.002;5.468;2023-08-17T02:24:26;101987.94;;;18.74;70.19
73341;BME280;61578;52.002;5.468;2023-08-17T02:24:57;101985.13;;;18.75;70.19
73341;BME280;61578;52.002;5.468;2023-08-17T02:25:27;101982.44;;;18.75;70.40
73341;BME280;61578;52.002;5.468;2023-08-17T02:26:11;101986.09;;;18.74;70.77
73341;BME280;61578;52.002;5.468;2023-08-17T02:26:42;101987.69;;;18.77;70.56
73341;BME280;61578;52.002;5.468;2023-08-17T02:27:13;101980.47;;;18.78;70.45
73341;BME280;61578;52.002;5.468;2023-08-17T02:27:43;101975.31;;;18.74;70.54
73341;BME280;61578;52.002;5.468;2023-08-17T02:28:14;101982.31;;;18.77;70.41
73341;BME280;61578;52.002;5.468;2023-08-17T02:28:45;101984.03;;;18.78;70.39
73341;BME280;61578;52.002;5.468;2023-08-17T02:29:16;101982.31;;;18.77;70.89
73341;BME280;61578;52.002;5.468;2023-08-17T02:29:47;101985.84;;;18.78;70.03
73341;BME280;61578;52.002;5.468;2023-08-17T02:30:17;101966.41;;;18.74;70.45
73341;BME280;61578;52.002;5.468;2023-08-17T02:30:48;101978.75;;;18.77;70.49
73341;BME280;61578;52.002;5.468;2023-08-17T02:31:19;101988.53;;;18.78;70.79
73341;BME280;61578;52.002;5.468;2023-08-17T02:31:50;101978.03;;;18.74;70.40
73341;BME280;61578;52.002;5.468;2023-08-17T02:32:20;101974.00;;;18.69;70.30
73341;BME280;61578;52.002;5.468;2023-08-17T02:32:51;101986.09;;;18.74;70.47
73341;BME280;61578;52.002;5.468;2023-08-17T02:33:22;101972.91;;;18.71;71.45
73341;BME280;61578;52.002;5.468;2023-08-17T02:33:53;101979.00;;;18.73;70.60
73341;BME280;61578;52.002;5.468;2023-08-17T02:34:28;101972.41;;;18.66;70.53
73341;BME280;61578;52.002;5.468;2023-08-17T02:34:59;101983.41;;;18.74;70.56
73341;BME280;61578;52.002;5.468;2023-08-17T02:35:30;101981.69;;;18.73;70.14
73341;BME280;61578;52.002;5.468;2023-08-17T02:36:00;101981.84;;;18.72;70.48
73341;BME280;61578;52.002;5.468;2023-08-17T02:36:32;101982.94;;;18.69;70.87
73341;BME280;61578;52.002;5.468;2023-08-17T02:37:02;101987.34;;;18.70;70.96
73341;BME280;61578;52.002;5.468;2023-08-17T02:37:33;101978.41;;;18.70;71.18
73341;BME280;61578;52.002;5.468;2023-08-17T02:38:04;101977.44;;;18.71;70.35
73341;BME280;61578;52.002;5.468;2023-08-17T02:38:34;101963.34;;;18.67;70.50
73341;BME280;61578;52.002;5.468;2023-08-17T02:39:05;101973.75;;;18.72;70.69
73341;BME280;61578;52.002;5.468;2023-08-17T02:39:36;101975.59;;;18.71;71.25
73341;BME280;61578;52.002;5.468;2023-08-17T02:40:07;101973.88;;;18.70;71.13
73341;BME280;61578;52.002;5.468;2023-08-17T02:40:38;101971.44;;;18.67;71.06
73341;BME280;61578;52.002;5.468;2023-08-17T02:41:17;101965.06;;;18.68;70.92
73341;BME280;61578;52.002;5.468;2023-08-17T02:41:48;101971.31;;;18.69;71.63
73341;BME280;61578;52.002;5.468;2023-08-17T02:42:21;101976.56;;;18.70;71.52
73341;BME280;61578;52.002;5.468;2023-08-17T02:42:53;101964.84;;;18.71;71.28
73341;BME280;61578;52.002;5.468;2023-08-17T02:43:23;101963.13;;;18.70;70.56
73341;BME280;61578;52.002;5.468;2023-08-17T02:43:54;101969.25;;;18.72;70.94
73341;BME280;61578;52.002;5.468;2023-08-17T02:44:25;101970.22;;;18.71;71.06
73341;BME280;61578;52.002;5.468;2023-08-17T02:44:57;101965.81;;;18.70;71.00
73341;BME280;61578;52.002;5.468;2023-08-17T02:45:28;101968.38;;;18.72;70.91
73341;BME280;61578;52.002;5.468;2023-08-17T02:45:59;101966.56;;;18.72;70.63
73341;BME280;61578;52.002;5.468;2023-08-17T02:46:30;101964.56;;;18.74;70.74
73341;BME280;61578;52.002;5.468;2023-08-17T02:47:00;101960.03;;;18.75;70.66
73341;BME280;61578;52.002;5.468;2023-08-17T02:47:37;101963.72;;;18.74;70.71
73341;BME280;61578;52.002;5.468;2023-08-17T02:48:09;101967.25;;;18.74;70.95
73341;BME280;61578;52.002;5.468;2023-08-17T02:48:42;101968.97;;;18.75;70.56
73341;BME280;61578;52.002;5.468;2023-08-17T02:49:13;101964.44;;;18.76;70.80
73341;BME280;61578;52.002;5.468;2023-08-17T02:49:43;101957.63;;;18.72;71.01
73341;BME280;61578;52.002;5.468;2023-08-17T02:50:17;101949.91;;;18.67;71.23
73341;BME280;61578;52.002;5.468;2023-08-17T02:50:49;101968.97;;;18.75;70.59
73341;BME280;61578;52.002;5.468;2023-08-17T02:51:19;101974.34;;;18.75;70.50
73341;BME280;61578;52.002;5.468;2023-08-17T02:51:50;101955.06;;;18.70;70.18
73341;BME280;61578;52.002;5.468;2023-08-17T02:52:21;101953.94;;;18.73;70.53
73341;BME280;61578;52.002;5.468;2023-08-17T02:52:51;101966.03;;;18.79;70.81